sensor_id;sensor_type;location;lat;lon;timestamp;pressure;altitude;pressure_sealevel;temperature;humidity
19447;BME280;9862;49.462;11.054;2023-04-09T00:02:01;98783.50;;;10.62;100.00
19447;BME280;9862;49.462;11.054;2023-04-09T00:04:28;98789.63;;;10.63;100.00
19447;BME280;9862;49.462;11.054;2023-04-09T00:06:54;98784.13;;;10.64;100.00
19447;BME280;9862;49.462;11.054;2023-04-09T00:09:21;98783.50;;;10.62;100.00
19447;BME280;9862;49.462;11.054;2023-04-09T00:11:47;98783.66;;;10.60;100.00
19447;BME280;9862;49.462;11.054;2023-04-09T00:14:16;98775.88;;;10.59;100.00
19447;BME280;9862;49.462;11.054;2023-04-09T00:16:42;98780.56;;;10.57;100.00
19447;BME280;9862;49.462;11.054;2023-04-09T00:19:09;98777.16;;;10.63;100.00
19447;BME280;9862;49.462;11.054;2023-04-09T00:21:35;98775.50;;;10.62;100.00
19447;BME280;9862;49.462;11.054;2023-04-09T00:24:02;98777.16;;;10.63;100.00
19447;BME280;9862;49.462;11.054;2023-04-09T00:26:29;98779.63;;;10.65;100.00
19447;BME280;9862;49.462;11.054;2023-04-09T00:28:56;98772.19;;;10.60;100.00
19447;BME280;9862;49.462;11.054;2023-04-09T00:31:25;98775.03;;;10.58;100.00
19447;BME280;9862;49.462;11.054;2023-04-09T00:33:51;98773.78;;;10.54;100.00
19447;BME280;9862;49.462;11.054;2023-04-09T00:36:18;98770.03;;;10.49;100.00
19447;BME280;9862;49.462;11.054;2023-04-09T00:38:45;98772.25;;;10.45;100.00
19447;BME280;9862;49.462;11.054;2023-04-09T00:41:12;98776.13;;;10.43;100.00
19447;BME280;9862;49.462;11.054;2023-04-09T00:43:38;98781.88;;;10.46;100.00
19447;BME280;9862;49.462;11.054;2023-04-09T00:46:05;98779.03;;;10.48;100.00
19447;BME280;9862;49.462;11.054;2023-04-09T00:48:33;98784.97;;;10.50;100.00
19447;BME280;9862;49.462;11.054;2023-04-09T00:51:00;98778.66;;;10.51;100.00
19447;BME280;9862;49.462;11.054;2023-04-09T00:53:27;98777.66;;;10.52;100.00
19447;BME280;9862;49.462;11.054;2023-04-09T00:55:54;98774.81;;;10.53;100.00
19447;BME280;9862;49.462;11.054;2023-04-09T00:58:21;98777.47;;;10.53;100.00
19447;BME280;9862;49.462;11.054;2023-04-09T01:00:47;98776.44;;;10.54;100.00
19447;BME280;9862;49.462;11.054;2023-04-09T01:03:14;98780.94;;;10.54;100.00
19447;BME280;9862;49.462;11.054;2023-04-09T01:05:59;98776.44;;;10.54;100.00
19447;BME280;9862;49.462;11.054;2023-04-09T01:08:32;98775.44;;;10.55;100.00
19447;BME280;9862;49.462;11.054;2023-04-09T01:11:07;98772.56;;;10.57;100.00
19447;BME280;9862;49.462;11.054;2023-04-09T01:13:44;98769.91;;;10.57;100.00
19447;BME280;9862;49.462;11.054;2023-04-09T01:16:14;98761.94;;;10.57;100.00
19447;BME280;9862;49.462;11.054;2023-04-09T01:18:43;98766.63;;;10.55;100.00
19447;BME280;9862;49.462;11.054;2023-04-09T01:21:16;98763.97;;;10.55;100.00
19447;BME280;9862;49.462;11.054;2023-04-09T01:23:46;98764.59;;;10.57;100.00
19447;BME280;9862;49.462;11.054;2023-04-09T01:26:22;98764.78;;;10.55;100.00
19447;BME280;9862;49.462;11.054;2023-04-09T01:28:56;98763.38;;;10.59;100.00
19447;BME280;9862;49.462;11.054;2023-04-09T01:31:27;98769.53;;;10.60;100.00
19447;BME280;9862;49.462;11.054;2023-04-09T01:33:55;98769.53;;;10.60;100.00
19447;BME280;9862;49.462;11.054;2023-04-09T01:36:23;98762.75;;;10.57;100.00
19447;BME280;9862;49.462;11.054;2023-04-09T01:38:51;98770.53;;;10.59;100.00
19447;BME280;9862;49.462;11.054;2023-04-09T01:41:21;98760.72;;;10.59;100.00
19447;BME280;9862;49.462;11.054;2023-04-09T01:43:49;98769.72;;;10.58;100.00
19447;BME280;9862;49.462;11.054;2023-04-09T01:46:18;98774.22;;;10.58;100.00
19447;BME280;9862;49.462;11.054;2023-04-09T01:48:46;98763.19;;;10.61;100.00
19447;BME280;9862;49.462;11.054;2023-04-09T01:51:14;98771.31;;;10.53;100.00
19447;BME280;9862;49.462;11.054;2023-04-09T01:53:41;98769.00;;;10.50;100.00
19447;BME280;9862;49.462;11.054;2023-04-09T01:56:08;98769.22;;;10.48;100.00
19447;BME280;9862;49.462;11.054;2023-04-09T01:58:35;98758.56;;;10.48;100.00
19447;BME280;9862;49.462;11.054;2023-04-09T02:01:05;98761.03;;;10.50;100.00
19447;BME280;9862;49.462;11.054;2023-04-09T02:03:38;98768.81;;;10.51;100.00
19447;BME280;9862;49.462;11.054;2023-04-09T02:06:09;98773.16;;;10.52;100.00
19447;BME280;9862;49.462;11.054;2023-04-09T02:08:40;98774.16;;;10.51;100.00
19447;BME280;9862;49.462;11.054;2023-04-09T02:11:10;98779.66;;;10.50;100.00
19447;BME280;9862;49.462;11.054;2023-04-09T02:13:39;98783.09;;;10.44;100.00
19447;BME280;9862;49.462;11.054;2023-04-09T02:16:06;98784.28;;;10.41;100.00
19447;BME280;9862;49.462;11.054;2023-04-09T02:18:35;98776.25;;;10.35;100.00
19447;BME280;9862;49.462;11.054;2023-04-09T02:21:02;98776.78;;;10.30;100.00
19447;BME280;9862;49.462;11.054;2023-04-09T02:23:31;98781.28;;;10.29;100.00
19447;BME280;9862;49.462;11.054;2023-04-09T02:25:58;98770.47;;;10.31;100.00
19447;BME280;9862;49.462;11.054;2023-04-09T02:28:24;98774.97;;;10.30;100.00
19447;BME280;9862;49.462;11.054;2023-04-09T02:30:51;98775.78;;;10.31;100.00
19447;BME280;9862;49.462;11.054;2023-04-09T02:33:17;98774.97;;;10.30;100.00
19447;BME280;9862;49.462;11.054;2023-04-09T02:35:45;98780.28;;;10.30;100.00
19447;BME280;9862;49.462;11.054;2023-04-09T02:38:12;98777.63;;;10.30;100.00
19447;BME280;9862;49.462;11.054;2023-04-09T02:40:40;98781.28;;;10.29;100.00
19447;BME280;9862;49.462;11.054;2023-04-09T02:43:07;98779.25;;;10.31;100.00
19447;BME280;9862;49.462;11.054;2023-04-09T02:45:33;98773.31;;;10.29;100.00
19447;BME280;9862;49.462;11.054;2023-04-09T02:48:00;98775.78;;;10.31;100.00
19447;BME280;9862;49.462;11.054;2023-04-09T02:50:27;98775.22;;;10.36;100.00
19447;BME280;9862;49.462;11.054;2023-04-09T02:52:55;98775.59;;;10.32;100.00
19447;BME280;9862;49.462;11.054;2023-04-09T02:55:21;98770.66;;;10.29;100.00
19447;BME280;9862;49.462;11.054;2023-04-09T02:57:48;98775.53;;;10.26;100.00
19447;BME280;9862;49.462;11.054;2023-04-09T03:00:14;98776.75;;;10.23;100.00
19447;BME280;9862;49.462;11.054;2023-04-09T03:02:41;98771.03;;;10.26;100.00
19447;BME280;9862;49.462;11.054;2023-04-09T03:05:08;98773.06;;;10.24;100.00
19447;BME280;9862;49.462;11.054;2023-04-09T03:07:35;98773.41;;;10.21;100.00
19447;BME280;9862;49.462;11.054;2023-04-09T03:10:03;98761.09;;;10.20;100.00
19447;BME280;9862;49.462;11.054;2023-04-09T03:12:30;98769.91;;;10.21;100.00
19447;BME280;9862;49.462;11.054;2023-04-09T03:14:56;98763.97;;;10.19;100.00
19447;BME280;9862;49.462;11.054;2023-04-09T03:17:23;98758.19;;;10.15;100.00
19447;BME280;9862;49.462;11.054;2023-04-09T03:19:51;98767.56;;;10.11;100.00
19447;BME280;9862;49.462;11.054;2023-04-09T03:22:17;98764.25;;;10.09;100.00
19447;BME280;9862;49.462;11.054;2023-04-09T03:24:44;98758.69;;;10.04;100.00
19447;BME280;9862;49.462;11.054;2023-04-09T03:27:12;98762.34;;;10.03;100.00
19447;BME280;9862;49.462;11.054;2023-04-09T03:29:39;98768.22;;;9.98;100.00
19447;BME280;9862;49.462;11.054;2023-04-09T03:32:05;98770.25;;;9.96;100.00
19447;BME280;9862;49.462;11.054;2023-04-09T03:34:32;98776.75;;;9.94;100.00
19447;BME280;9862;49.462;11.054;2023-04-09T03:36:58;98778.78;;;9.92;100.00
19447;BME280;9862;49.462;11.054;2023-04-09T03:39:25;98774.47;;;9.91;100.00
19447;BME280;9862;49.462;11.054;2023-04-09T03:41:55;98778.78;;;9.92;100.00
19447;BME280;9862;49.462;11.054;2023-04-09T03:44:23;98770.56;;;9.87;100.00
19447;BME280;9862;49.462;11.054;2023-04-09T03:46:50;98783.56;;;9.82;100.00
19447;BME280;9862;49.462;11.054;2023-04-09T03:49:16;98778.81;;;9.77;100.00
19447;BME280;9862;49.462;11.054;2023-04-09T03:51:43;98777.31;;;9.74;100.00
19447;BME280;9862;49.462;11.054;2023-04-09T03:54:09;98777.44;;;9.66;100.00
19447;BME280;9862;49.462;11.054;2023-04-09T03:56:36;98782.47;;;9.61;100.00
19447;BME280;9862;49.462;11.054;2023-04-09T03:59:02;98777.97;;;9.62;100.00
19447;BME280;9862;49.462;11.054;2023-04-09T04:01:30;98775.97;;;9.64;100.00
19447;BME280;9862;49.462;11.054;2023-04-09T04:03:57;98781.47;;;9.62;100.00
19447;BME280;9862;49.462;11.054;2023-04-09T04:06:23;98785.75;;;9.63;100.00
19447;BME280;9862;49.462;11.054;2023-04-09T04:08:51;98782.03;;;9.58;100.00
19447;BME280;9862;49.462;11.054;2023-04-09T04:11:17;98781.66;;;9.61;100.00
19447;BME280;9862;49.462;11.054;2023-04-09T04:13:44;98781.41;;;9.56;100.00
19447;BME280;9862;49.462;11.054;2023-04-09T04:16:10;98783.56;;;9.52;100.00
19447;BME280;9862;49.462;11.054;2023-04-09T04:18:38;98794.19;;;9.52;100.00
19447;BME280;9862;49.462;11.054;2023-04-09T04:21:11;98794.56;;;9.49;100.00
19447;BME280;9862;49.462;11.054;2023-04-09T04:23:38;98798.41;;;9.61;100.00
19447;BME280;9862;49.462;11.054;2023-04-09T04:26:06;98797.41;;;9.48;100.00
19447;BME280;9862;49.462;11.054;2023-04-09T04:28:34;98803.91;;;9.45;100.00
19447;BME280;9862;49.462;11.054;2023-04-09T04:31:00;98803.00;;;9.38;100.00
19447;BME280;9862;49.462;11.054;2023-04-09T04:33:27;98806.19;;;9.33;100.00
19447;BME280;9862;49.462;11.054;2023-04-09T04:36:03;98807.38;;;9.31;100.00
19447;BME280;9862;49.462;11.054;2023-04-09T04:38:30;98812.69;;;9.31;100.00
19447;BME280;9862;49.462;11.054;2023-04-09T04:40:57;98810.69;;;9.33;100.00
19447;BME280;9862;49.462;11.054;2023-04-09T04:43:23;98815.63;;;9.36;100.00
19447;BME280;9862;49.462;11.054;2023-04-09T04:45:50;98811.16;;;9.36;100.00
19447;BME280;9862;49.462;11.054;2023-04-09T04:48:16;98815.28;;;9.39;100.00
19447;BME280;9862;49.462;11.054;2023-04-09T04:50:43;98820.59;;;9.39;100.00
19447;BME280;9862;49.462;11.054;2023-04-09T04:53:11;98820.22;;;9.42;100.00
19447;BME280;9862;49.462;11.054;2023-04-09T04:55:37;98823.88;;;9.41;100.00
19447;BME280;9862;49.462;11.054;2023-04-09T04:58:04;98823.88;;;9.41;100.00
19447;BME280;9862;49.462;11.054;2023-04-09T05:00:31;98824.69;;;9.41;100.00
19447;BME280;9862;49.462;11.054;2023-04-09T05:02:57;98823.88;;;9.41;100.00
19447;BME280;9862;49.462;11.054;2023-04-09T05:05:24;98823.69;;;9.42;100.00
19447;BME280;9862;49.462;11.054;2023-04-09T05:07:50;98825.97;;;9.45;100.00
19447;BME280;9862;49.462;11.054;2023-04-09T05:10:18;98819.19;;;9.43;100.00
19447;BME280;9862;49.462;11.054;2023-04-09T05:12:44;98824.53;;;9.43;100.00
19447;BME280;9862;49.462;11.054;2023-04-09T05:15:11;98827.19;;;9.43;100.00
19447;BME280;9862;49.462;11.054;2023-04-09T05:17:41;98827.19;;;9.43;100.00
19447;BME280;9862;49.462;11.054;2023-04-09T05:20:08;98828.47;;;9.47;100.00
19447;BME280;9862;49.462;11.054;2023-04-09T05:22:35;98825.16;;;9.45;100.00
19447;BME280;9862;49.462;11.054;2023-04-09T05:25:02;98825.97;;;9.45;100.00
19447;BME280;9862;49.462;11.054;2023-04-09T05:27:30;98829.50;;;9.46;100.00
19447;BME280;9862;49.462;11.054;2023-04-09T05:29:57;98829.31;;;9.48;100.00
19447;BME280;9862;49.462;11.054;2023-04-09T05:32:23;98829.13;;;9.49;100.00
19447;BME280;9862;49.462;11.054;2023-04-09T05:34:50;98826.09;;;9.52;100.00
19447;BME280;9862;49.462;11.054;2023-04-09T05:37:16;98824.06;;;9.54;100.00
19447;BME280;9862;49.462;11.054;2023-04-09T05:39:43;98827.53;;;9.55;100.00
19447;BME280;9862;49.462;11.054;2023-04-09T05:42:09;98834.69;;;9.54;100.00
19447;BME280;9862;49.462;11.054;2023-04-09T05:44:37;98824.44;;;9.51;100.00
19447;BME280;9862;49.462;11.054;2023-04-09T05:47:04;98839.19;;;9.54;100.00
19447;BME280;9862;49.462;11.054;2023-04-09T05:49:30;98837.66;;;9.59;100.00
19447;BME280;9862;49.462;11.054;2023-04-09T05:51:57;98827.28;;;9.64;100.00
19447;BME280;9862;49.462;11.054;2023-04-09T05:54:23;98831.88;;;9.70;100.00
19447;BME280;9862;49.462;11.054;2023-04-09T05:56:50;98831.97;;;9.77;100.00
19447;BME280;9862;49.462;11.054;2023-04-09T05:59:16;98833.44;;;9.80;100.00
19447;BME280;9862;49.462;11.054;2023-04-09T06:01:45;98836.38;;;9.85;100.00
19447;BME280;9862;49.462;11.054;2023-04-09T06:04:11;98837.47;;;9.90;100.00
19447;BME280;9862;49.462;11.054;2023-04-09T06:06:38;98829.66;;;9.89;100.00
19447;BME280;9862;49.462;11.054;2023-04-09T06:09:04;98840.41;;;9.81;100.00
19447;BME280;9862;49.462;11.054;2023-04-09T06:11:31;98836.53;;;9.83;100.00
19447;BME280;9862;49.462;11.054;2023-04-09T06:13:57;98840.31;;;9.89;100.00
19447;BME280;9862;49.462;11.054;2023-04-09T06:16:24;98844.72;;;9.96;100.00
19447;BME280;9862;49.462;11.054;2023-04-09T06:18:52;98843.13;;;10.02;100.00
19447;BME280;9862;49.462;11.054;2023-04-09T06:21:21;98843.59;;;10.06;100.00
19447;BME280;9862;49.462;11.054;2023-04-09T06:23:48;98833.59;;;10.08;100.00
19447;BME280;9862;49.462;11.054;2023-04-09T06:26:14;98841.19;;;10.11;100.00
19447;BME280;9862;49.462;11.054;2023-04-09T06:28:41;98844.97;;;10.16;100.00
19447;BME280;9862;49.462;11.054;2023-04-09T06:31:08;98845.91;;;10.23;100.00
19447;BME280;9862;49.462;11.054;2023-04-09T06:33:34;98846.16;;;10.28;100.00
19447;BME280;9862;49.462;11.054;2023-04-09T06:36:03;98841.94;;;10.34;100.00
19447;BME280;9862;49.462;11.054;2023-04-09T06:38:29;98842.38;;;10.38;100.00
19447;BME280;9862;49.462;11.054;2023-04-09T06:40:56;98845.75;;;10.46;100.00
19447;BME280;9862;49.462;11.054;2023-04-09T06:43:22;98850.69;;;10.49;100.00
19447;BME280;9862;49.462;11.054;2023-04-09T06:45:49;98854.66;;;10.53;100.00
19447;BME280;9862;49.462;11.054;2023-04-09T06:48:16;98851.16;;;10.53;100.00
19447;BME280;9862;49.462;11.054;2023-04-09T06:50:43;98860.78;;;10.54;100.00
19447;BME280;9862;49.462;11.054;2023-04-09T06:53:11;98863.06;;;10.57;100.00
19447;BME280;9862;49.462;11.054;2023-04-09T06:55:38;98859.91;;;10.68;100.00
19447;BME280;9862;49.462;11.054;2023-04-09T06:58:05;98852.94;;;10.67;100.00
19447;BME280;9862;49.462;11.054;2023-04-09T07:00:32;98856.34;;;10.61;100.00
19447;BME280;9862;49.462;11.054;2023-04-09T07:02:58;98861.94;;;10.66;100.00
19447;BME280;9862;49.462;11.054;2023-04-09T07:05:25;98863.50;;;10.60;100.00
19447;BME280;9862;49.462;11.054;2023-04-09T07:07:51;98861.66;;;10.61;100.00
19447;BME280;9862;49.462;11.054;2023-04-09T07:10:19;98862.06;;;10.79;100.00
19447;BME280;9862;49.462;11.054;2023-04-09T07:12:46;98857.75;;;10.78;100.00
19447;BME280;9862;49.462;11.054;2023-04-09T07:15:12;98859.16;;;10.74;100.00
19447;BME280;9862;49.462;11.054;2023-04-09T07:17:39;98861.44;;;10.77;100.00
19447;BME280;9862;49.462;11.054;2023-04-09T07:20:06;98845.72;;;10.82;100.00
19447;BME280;9862;49.462;11.054;2023-04-09T07:22:33;98859.16;;;10.74;100.00
19447;BME280;9862;49.462;11.054;2023-04-09T07:25:00;98858.16;;;10.75;100.00
19447;BME280;9862;49.462;11.054;2023-04-09T07:27:28;98868.50;;;10.85;100.00
19447;BME280;9862;49.462;11.054;2023-04-09T07:29:55;98866.34;;;10.95;100.00
19447;BME280;9862;49.462;11.054;2023-04-09T07:32:22;98862.84;;;10.95;100.00
19447;BME280;9862;49.462;11.054;2023-04-09T07:34:51;98860.28;;;11.08;100.00
19447;BME280;9862;49.462;11.054;2023-04-09T07:37:17;98864.88;;;11.14;100.00
19447;BME280;9862;49.462;11.054;2023-04-09T07:39:44;98865.50;;;11.16;100.00
19447;BME280;9862;49.462;11.054;2023-04-09T07:42:12;98870.06;;;11.22;100.00
19447;BME280;9862;49.462;11.054;2023-04-09T07:44:40;98864.84;;;11.35;100.00
19447;BME280;9862;49.462;11.054;2023-04-09T07:47:08;98877.19;;;11.43;100.00
19447;BME280;9862;49.462;11.054;2023-04-09T07:49:35;98865.22;;;11.32;100.00
19447;BME280;9862;49.462;11.054;2023-04-09T07:52:03;98869.53;;;11.33;100.00
19447;BME280;9862;49.462;11.054;2023-04-09T07:54:30;98868.66;;;11.26;100.00
19447;BME280;9862;49.462;11.054;2023-04-09T07:56:57;98876.22;;;11.23;100.00
19447;BME280;9862;49.462;11.054;2023-04-09T07:59:24;98873.16;;;11.26;100.00
19447;BME280;9862;49.462;11.054;2023-04-09T08:01:53;98872.41;;;11.32;100.00
19447;BME280;9862;49.462;11.054;2023-04-09T08:04:20;98868.72;;;11.33;100.00
19447;BME280;9862;49.462;11.054;2023-04-09T08:06:46;98873.47;;;11.37;100.00
19447;BME280;9862;49.462;11.054;2023-04-09T08:09:15;98872.44;;;11.38;100.00
19447;BME280;9862;49.462;11.054;2023-04-09T08:11:41;98881.94;;;11.47;100.00
19447;BME280;9862;49.462;11.054;2023-04-09T08:14:09;98877.44;;;11.48;100.00
19447;BME280;9862;49.462;11.054;2023-04-09T08:16:38;98875.03;;;11.53;100.00
19447;BME280;9862;49.462;11.054;2023-04-09T08:19:07;98870.38;;;11.62;100.00
19447;BME280;9862;49.462;11.054;2023-04-09T08:21:35;98868.09;;;11.59;100.00
19447;BME280;9862;49.462;11.054;2023-04-09T08:24:02;98869.34;;;11.63;100.00
19447;BME280;9862;49.462;11.054;2023-04-09T08:26:30;98868.19;;;11.72;100.00
19447;BME280;9862;49.462;11.054;2023-04-09T08:28:56;98865.00;;;11.83;100.00
19447;BME280;9862;49.462;11.054;2023-04-09T08:31:23;98872.09;;;11.76;100.00
19447;BME280;9862;49.462;11.054;2023-04-09T08:33:50;98865.13;;;11.75;100.00
19447;BME280;9862;49.462;11.054;2023-04-09T08:36:19;98866.22;;;11.81;100.00
19447;BME280;9862;49.462;11.054;2023-04-09T08:38:45;98866.66;;;11.84;100.00
19447;BME280;9862;49.462;11.054;2023-04-09T08:41:17;98856.06;;;11.97;100.00
19447;BME280;9862;49.462;11.054;2023-04-09T08:43:45;98853.78;;;11.94;100.00
19447;BME280;9862;49.462;11.054;2023-04-09T08:46:12;98857.25;;;11.88;100.00
19447;BME280;9862;49.462;11.054;2023-04-09T08:48:42;98856.84;;;11.91;100.00
19447;BME280;9862;49.462;11.054;2023-04-09T08:51:11;98861.56;;;11.89;100.00
19447;BME280;9862;49.462;11.054;2023-04-09T08:53:42;98862.59;;;11.95;100.00
19447;BME280;9862;49.462;11.054;2023-04-09T08:56:09;98859.34;;;11.99;100.00
19447;BME280;9862;49.462;11.054;2023-04-09T08:58:40;98860.59;;;12.03;100.00
19447;BME280;9862;49.462;11.054;2023-04-09T09:01:17;98858.19;;;12.15;100.00
19447;BME280;9862;49.462;11.054;2023-04-09T09:03:52;98850.38;;;12.14;100.00
19447;BME280;9862;49.462;11.054;2023-04-09T09:06:20;98857.78;;;12.12;100.00
19447;BME280;9862;49.462;11.054;2023-04-09T09:08:58;98858.63;;;12.19;100.00
19447;BME280;9862;49.462;11.054;2023-04-09T09:11:25;98855.56;;;12.22;100.00
19447;BME280;9862;49.462;11.054;2023-04-09T09:13:56;98856.19;;;12.24;100.00
19447;BME280;9862;49.462;11.054;2023-04-09T09:16:23;98855.19;;;12.31;100.00
19447;BME280;9862;49.462;11.054;2023-04-09T09:18:49;98851.69;;;12.31;100.00
19447;BME280;9862;49.462;11.054;2023-04-09T09:21:17;98861.97;;;12.34;100.00
19447;BME280;9862;49.462;11.054;2023-04-09T09:23:44;98853.03;;;12.55;100.00
19447;BME280;9862;49.462;11.054;2023-04-09T09:26:15;98856.72;;;12.60;100.00
19447;BME280;9862;49.462;11.054;2023-04-09T09:28:42;98867.16;;;12.49;100.00
19447;BME280;9862;49.462;11.054;2023-04-09T09:31:10;98860.56;;;12.38;100.00
19447;BME280;9862;49.462;11.054;2023-04-09T09:33:37;98856.00;;;12.32;100.00
19447;BME280;9862;49.462;11.054;2023-04-09T09:36:04;98854.16;;;12.32;100.00
19447;BME280;9862;49.462;11.054;2023-04-09T09:38:32;98853.00;;;12.48;100.00
19447;BME280;9862;49.462;11.054;2023-04-09T09:41:16;98859.19;;;12.55;100.00
19447;BME280;9862;49.462;11.054;2023-04-09T09:43:43;98854.84;;;12.54;100.00
19447;BME280;9862;49.462;11.054;2023-04-09T09:46:10;98859.56;;;12.52;100.00
19447;BME280;9862;49.462;11.054;2023-04-09T09:48:37;98851.19;;;12.55;100.00
19447;BME280;9862;49.462;11.054;2023-04-09T09:51:07;98853.47;;;12.72;100.00
19447;BME280;9862;49.462;11.054;2023-04-09T09:53:35;98852.22;;;12.68;100.00
19447;BME280;9862;49.462;11.054;2023-04-09T09:56:03;98851.81;;;12.57;100.00
19447;BME280;9862;49.462;11.054;2023-04-09T09:58:36;98848.09;;;12.58;100.00
19447;BME280;9862;49.462;11.054;2023-04-09T10:01:06;98846.03;;;12.60;100.00
19447;BME280;9862;49.462;11.054;2023-04-09T10:03:35;98847.31;;;12.65;100.00
19447;BME280;9862;49.462;11.054;2023-04-09T10:06:04;98852.84;;;12.70;100.00
19447;BME280;9862;49.462;11.054;2023-04-09T10:08:31;98848.13;;;12.72;100.00
19447;BME280;9862;49.462;11.054;2023-04-09T10:10:59;98844.25;;;12.74;100.00
19447;BME280;9862;49.462;11.054;2023-04-09T10:13:29;98851.41;;;12.67;100.00
19447;BME280;9862;49.462;11.054;2023-04-09T10:16:00;98851.41;;;12.67;100.00
19447;BME280;9862;49.462;11.054;2023-04-09T10:18:27;98836.41;;;12.66;100.00
19447;BME280;9862;49.462;11.054;2023-04-09T10:20:57;98832.34;;;12.90;98.74
19447;BME280;9862;49.462;11.054;2023-04-09T10:23:31;98825.16;;;12.90;97.55
19447;BME280;9862;49.462;11.054;2023-04-09T10:25:59;98822.50;;;12.97;95.91
19447;BME280;9862;49.462;11.054;2023-04-09T10:28:25;98823.50;;;13.09;95.67
19447;BME280;9862;49.462;11.054;2023-04-09T10:30:52;98816.75;;;13.13;98.37
19447;BME280;9862;49.462;11.054;2023-04-09T10:33:22;98815.75;;;13.34;92.13
19447;BME280;9862;49.462;11.054;2023-04-09T10:35:51;98820.25;;;13.27;89.90
19447;BME280;9862;49.462;11.054;2023-04-09T10:38:32;98824.19;;;13.25;91.96
19447;BME280;9862;49.462;11.054;2023-04-09T10:41:05;98819.66;;;13.32;92.68
19447;BME280;9862;49.462;11.054;2023-04-09T10:43:33;98822.09;;;13.40;93.59
19447;BME280;9862;49.462;11.054;2023-04-09T10:46:03;98816.16;;;13.44;92.34
19447;BME280;9862;49.462;11.054;2023-04-09T10:48:33;98819.81;;;13.50;89.60
19447;BME280;9862;49.462;11.054;2023-04-09T10:51:02;98816.53;;;13.55;83.82
19447;BME280;9862;49.462;11.054;2023-04-09T10:53:31;98815.94;;;13.46;82.05
19447;BME280;9862;49.462;11.054;2023-04-09T10:55:57;98814.50;;;13.43;83.23
19447;BME280;9862;49.462;11.054;2023-04-09T10:58:24;98817.78;;;13.39;83.75
19447;BME280;9862;49.462;11.054;2023-04-09T11:00:50;98813.03;;;13.41;79.15
19447;BME280;9862;49.462;11.054;2023-04-09T11:03:27;98809.13;;;13.50;73.07
19447;BME280;9862;49.462;11.054;2023-04-09T11:06:01;98817.56;;;13.54;68.22
19447;BME280;9862;49.462;11.054;2023-04-09T11:08:28;98808.91;;;13.65;63.33
19447;BME280;9862;49.462;11.054;2023-04-09T11:10:56;98810.13;;;13.75;60.46
19447;BME280;9862;49.462;11.054;2023-04-09T11:13:25;98802.03;;;13.89;57.38
19447;BME280;9862;49.462;11.054;2023-04-09T11:15:53;98800.16;;;13.96;58.97
19447;BME280;9862;49.462;11.054;2023-04-09T11:18:21;98793.75;;;14.03;62.95
19447;BME280;9862;49.462;11.054;2023-04-09T11:20:48;98800.75;;;14.11;61.73
19447;BME280;9862;49.462;11.054;2023-04-09T11:23:16;98800.53;;;14.06;62.83
19447;BME280;9862;49.462;11.054;2023-04-09T11:25:47;98796.81;;;14.07;61.69
19447;BME280;9862;49.462;11.054;2023-04-09T11:28:14;98796.28;;;13.92;63.16
19447;BME280;9862;49.462;11.054;2023-04-09T11:30:41;98801.88;;;13.84;64.19
19447;BME280;9862;49.462;11.054;2023-04-09T11:33:08;98795.47;;;13.85;63.47
19447;BME280;9862;49.462;11.054;2023-04-09T11:35:35;98798.31;;;14.03;59.83
19447;BME280;9862;49.462;11.054;2023-04-09T11:38:05;98797.47;;;14.02;59.24
19447;BME280;9862;49.462;11.054;2023-04-09T11:40:34;98796.66;;;14.02;59.57
19447;BME280;9862;49.462;11.054;2023-04-09T11:43:00;98797.88;;;14.06;58.85
19447;BME280;9862;49.462;11.054;2023-04-09T11:45:29;98796.28;;;13.92;59.68
19447;BME280;9862;49.462;11.054;2023-04-09T11:47:57;98800.00;;;13.91;60.43
19447;BME280;9862;49.462;11.054;2023-04-09T11:50:24;98797.53;;;13.83;57.26
19447;BME280;9862;49.462;11.054;2023-04-09T11:52:51;98789.09;;;13.79;58.85
19447;BME280;9862;49.462;11.054;2023-04-09T11:55:24;98786.78;;;13.96;61.00
19447;BME280;9862;49.462;11.054;2023-04-09T11:57:53;98785.97;;;13.89;61.18
19447;BME280;9862;49.462;11.054;2023-04-09T12:00:21;98786.34;;;13.99;61.07
19447;BME280;9862;49.462;11.054;2023-04-09T12:02:57;98783.50;;;13.94;62.16
19447;BME280;9862;49.462;11.054;2023-04-09T12:05:27;98777.72;;;14.03;60.47
19447;BME280;9862;49.462;11.054;2023-04-09T12:07:56;98784.25;;;14.08;60.18
19447;BME280;9862;49.462;11.054;2023-04-09T12:10:26;98789.63;;;14.08;61.63
19447;BME280;9862;49.462;11.054;2023-04-09T12:12:59;98787.13;;;14.13;61.88
19447;BME280;9862;49.462;11.054;2023-04-09T12:15:30;98793.47;;;14.18;61.52
19447;BME280;9862;49.462;11.054;2023-04-09T12:17:57;98785.38;;;14.38;58.99
19447;BME280;9862;49.462;11.054;2023-04-09T12:20:32;98784.94;;;14.48;60.10
19447;BME280;9862;49.462;11.054;2023-04-09T12:23:00;98782.00;;;14.56;60.11
19447;BME280;9862;49.462;11.054;2023-04-09T12:25:28;98780.53;;;14.60;58.77
19447;BME280;9862;49.462;11.054;2023-04-09T12:27:56;98778.16;;;14.39;58.59
19447;BME280;9862;49.462;11.054;2023-04-09T12:30:24;98770.16;;;14.32;59.30
19447;BME280;9862;49.462;11.054;2023-04-09T12:32:51;98785.75;;;14.42;59.61
19447;BME280;9862;49.462;11.054;2023-04-09T12:35:18;98772.41;;;14.35;61.12
19447;BME280;9862;49.462;11.054;2023-04-09T12:37:45;98777.50;;;14.43;61.26
19447;BME280;9862;49.462;11.054;2023-04-09T12:40:12;98780.19;;;14.50;58.81
19447;BME280;9862;49.462;11.054;2023-04-09T12:42:39;98773.28;;;14.67;56.18
19447;BME280;9862;49.462;11.054;2023-04-09T12:45:08;98772.09;;;14.56;57.30
19447;BME280;9862;49.462;11.054;2023-04-09T12:47:36;98762.63;;;14.54;57.89
19447;BME280;9862;49.462;11.054;2023-04-09T12:50:04;98764.50;;;14.53;57.52
19447;BME280;9862;49.462;11.054;2023-04-09T12:52:31;98761.00;;;14.53;59.03
19447;BME280;9862;49.462;11.054;2023-04-09T12:54:58;98756.59;;;14.65;57.09
19447;BME280;9862;49.462;11.054;2023-04-09T12:57:25;98765.50;;;14.59;57.63
19447;BME280;9862;49.462;11.054;2023-04-09T12:59:52;98759.97;;;14.54;58.84